sensor_id;sensor_type;location;lat;lon;timestamp;pressure;altitude;pressure_sealevel;temperature;humidity
18527;BME280;9393;42.158;24.748;2023-02-13T00:02:44;101470.97;;;7.06;54.31
18527;BME280;9393;42.158;24.748;2023-02-13T00:05:48;101478.09;;;7.20;53.55
18527;BME280;9393;42.158;24.748;2023-02-13T00:08:53;101477.66;;;7.10;54.12
18527;BME280;9393;42.158;24.748;2023-02-13T00:11:57;101481.22;;;6.91;54.44
18527;BME280;9393;42.158;24.748;2023-02-13T00:15:01;101481.69;;;6.99;54.30
18527;BME280;9393;42.158;24.748;2023-02-13T00:18:05;101481.69;;;6.80;54.78
18527;BME280;9393;42.158;24.748;2023-02-13T00:21:11;101483.44;;;6.98;54.57
18527;BME280;9393;42.158;24.748;2023-02-13T00:24:16;101496.56;;;6.95;54.61
18527;BME280;9393;42.158;24.748;2023-02-13T00:27:20;101500.00;;;6.77;55.04
18527;BME280;9393;42.158;24.748;2023-02-13T00:30:24;101497.13;;;6.83;54.71
18527;BME280;9393;42.158;24.748;2023-02-13T00:33:28;101494.72;;;6.97;54.53
18527;BME280;9393;42.158;24.748;2023-02-13T00:36:32;101493.88;;;7.16;54.08
18527;BME280;9393;42.158;24.748;2023-02-13T00:39:37;101494.47;;;7.21;53.86
18527;BME280;9393;42.158;24.748;2023-02-13T00:42:41;101495.19;;;7.24;53.86
18527;BME280;9393;42.158;24.748;2023-02-13T00:45:45;101492.97;;;7.17;53.46
18527;BME280;9393;42.158;24.748;2023-02-13T00:48:48;101490.09;;;7.40;53.23
18527;BME280;9393;42.158;24.748;2023-02-13T00:51:52;101485.38;;;7.31;53.63
18527;BME280;9393;42.158;24.748;2023-02-13T00:54:57;101492.06;;;7.35;53.59
18527;BME280;9393;42.158;24.748;2023-02-13T00:58:02;101492.06;;;7.35;53.31
18527;BME280;9393;42.158;24.748;2023-02-13T01:01:05;101499.41;;;7.27;53.23
18527;BME280;9393;42.158;24.748;2023-02-13T01:04:09;101491.56;;;7.45;52.97
18527;BME280;9393;42.158;24.748;2023-02-13T01:07:13;101495.50;;;7.35;53.42
18527;BME280;9393;42.158;24.748;2023-02-13T01:10:19;101495.84;;;7.46;52.80
18527;BME280;9393;42.158;24.748;2023-02-13T01:13:23;101492.56;;;7.43;52.83
18527;BME280;9393;42.158;24.748;2023-02-13T01:16:27;101491.50;;;7.47;52.95
18527;BME280;9393;42.158;24.748;2023-02-13T01:19:31;101500.31;;;7.61;52.62
18527;BME280;9393;42.158;24.748;2023-02-13T01:22:35;101493.03;;;7.68;52.17
18527;BME280;9393;42.158;24.748;2023-02-13T01:25:41;101493.19;;;7.65;52.68
18527;BME280;9393;42.158;24.748;2023-02-13T01:28:45;101496.75;;;7.62;52.42
18527;BME280;9393;42.158;24.748;2023-02-13T01:31:49;101500.69;;;7.71;52.48
18527;BME280;9393;42.158;24.748;2023-02-13T01:34:53;101510.75;;;7.77;51.82
18527;BME280;9393;42.158;24.748;2023-02-13T01:37:56;101501.53;;;7.72;52.12
18527;BME280;9393;42.158;24.748;2023-02-13T01:41:01;101512.47;;;7.42;53.17
18527;BME280;9393;42.158;24.748;2023-02-13T01:47:44;101516.88;;;7.23;54.56
18527;BME280;9393;42.158;24.748;2023-02-13T01:50:53;101517.38;;;7.13;55.06
18527;BME280;9393;42.158;24.748;2023-02-13T01:54:02;101520.88;;;7.11;55.01
18527;BME280;9393;42.158;24.748;2023-02-13T01:57:12;101526.91;;;6.93;55.66
18527;BME280;9393;42.158;24.748;2023-02-13T02:00:18;101515.84;;;6.71;56.52
18527;BME280;9393;42.158;24.748;2023-02-13T02:03:25;101516.53;;;6.75;56.86
18527;BME280;9393;42.158;24.748;2023-02-13T02:06:36;101523.06;;;6.83;56.08
18527;BME280;9393;42.158;24.748;2023-02-13T02:09:42;101527.06;;;6.72;56.63
18527;BME280;9393;42.158;24.748;2023-02-13T02:12:54;101521.78;;;6.54;57.41
18527;BME280;9393;42.158;24.748;2023-02-13T02:16:02;101526.75;;;6.59;57.47
18527;BME280;9393;42.158;24.748;2023-02-13T02:19:13;101530.56;;;6.89;56.42
18527;BME280;9393;42.158;24.748;2023-02-13T02:22:48;101547.56;;;6.57;57.74
18527;BME280;9393;42.158;24.748;2023-02-13T02:30:13;101549.41;;;6.35;58.64
18527;BME280;9393;42.158;24.748;2023-02-13T02:33:29;101555.50;;;6.14;59.37
18527;BME280;9393;42.158;24.748;2023-02-13T02:36:49;101552.72;;;6.19;59.19
18527;BME280;9393;42.158;24.748;2023-02-13T02:40:10;101563.94;;;6.19;58.82
18527;BME280;9393;42.158;24.748;2023-02-13T02:43:31;101557.94;;;6.17;59.31
18527;BME280;9393;42.158;24.748;2023-02-13T02:46:48;101569.41;;;6.32;58.54
18527;BME280;9393;42.158;24.748;2023-02-13T02:50:36;101572.66;;;5.96;59.81
18527;BME280;9393;42.158;24.748;2023-02-13T02:53:46;101568.41;;;6.16;58.90
18527;BME280;9393;42.158;24.748;2023-02-13T02:56:57;101566.84;;;6.32;58.35
18527;BME280;9393;42.158;24.748;2023-02-13T03:00:04;101571.09;;;5.92;59.52
18527;BME280;9393;42.158;24.748;2023-02-13T03:03:26;101575.50;;;5.47;61.12
18527;BME280;9393;42.158;24.748;2023-02-13T03:06:53;101581.63;;;5.66;60.36
18527;BME280;9393;42.158;24.748;2023-02-13T03:10:02;101577.84;;;5.96;59.66
18527;BME280;9393;42.158;24.748;2023-02-13T03:13:36;101575.63;;;6.07;59.21
18527;BME280;9393;42.158;24.748;2023-02-13T03:16:41;101576.09;;;6.17;58.66
18527;BME280;9393;42.158;24.748;2023-02-13T03:20:14;101569.28;;;5.94;59.43
18527;BME280;9393;42.158;24.748;2023-02-13T03:23:46;101575.13;;;5.99;59.00
18527;BME280;9393;42.158;24.748;2023-02-13T03:26:57;101578.06;;;5.90;59.83
18527;BME280;9393;42.158;24.748;2023-02-13T03:30:15;101574.34;;;5.97;59.44
18527;BME280;9393;42.158;24.748;2023-02-13T03:33:37;101577.72;;;5.99;59.31
18527;BME280;9393;42.158;24.748;2023-02-13T03:36:46;101590.25;;;5.88;60.22
18527;BME280;9393;42.158;24.748;2023-02-13T03:40:14;101589.75;;;6.00;59.85
18527;BME280;9393;42.158;24.748;2023-02-13T03:43:18;101590.69;;;6.20;58.89
18527;BME280;9393;42.158;24.748;2023-02-13T03:46:24;101584.97;;;6.32;58.61
18527;BME280;9393;42.158;24.748;2023-02-13T03:49:53;101591.53;;;6.20;58.83
18527;BME280;9393;42.158;24.748;2023-02-13T03:53:11;101581.91;;;5.80;60.59
18527;BME280;9393;42.158;24.748;2023-02-13T03:56:20;101583.97;;;5.94;59.99
18527;BME280;9393;42.158;24.748;2023-02-13T03:59:41;101582.53;;;5.87;60.31
18527;BME280;9393;42.158;24.748;2023-02-13T04:02:52;101587.28;;;5.97;59.86
18527;BME280;9393;42.158;24.748;2023-02-13T04:06:02;101584.78;;;5.96;59.97
18527;BME280;9393;42.158;24.748;2023-02-13T04:09:07;101582.59;;;5.85;60.17
18527;BME280;9393;42.158;24.748;2023-02-13T04:12:16;101590.28;;;6.08;59.50
18527;BME280;9393;42.158;24.748;2023-02-13T04:15:26;101593.84;;;5.84;60.13
18527;BME280;9393;42.158;24.748;2023-02-13T04:18:32;101588.66;;;5.86;59.77
18527;BME280;9393;42.158;24.748;2023-02-13T04:21:38;101593.00;;;5.84;60.16
18527;BME280;9393;42.158;24.748;2023-02-13T04:24:42;101594.94;;;5.79;60.25
18527;BME280;9393;42.158;24.748;2023-02-13T04:27:47;101599.75;;;5.66;60.85
18527;BME280;9393;42.158;24.748;2023-02-13T04:30:51;101590.41;;;5.62;60.87
18527;BME280;9393;42.158;24.748;2023-02-13T04:33:55;101596.44;;;5.63;60.77
18527;BME280;9393;42.158;24.748;2023-02-13T04:36:58;101592.91;;;5.65;60.43
18527;BME280;9393;42.158;24.748;2023-02-13T04:40:03;101588.25;;;5.73;60.48
18527;BME280;9393;42.158;24.748;2023-02-13T04:43:08;101584.75;;;5.74;60.35
18527;BME280;9393;42.158;24.748;2023-02-13T04:46:11;101601.66;;;5.83;59.74
18527;BME280;9393;42.158;24.748;2023-02-13T04:49:15;101603.47;;;5.59;60.47
18527;BME280;9393;42.158;24.748;2023-02-13T04:52:18;101605.41;;;5.54;60.18
18527;BME280;9393;42.158;24.748;2023-02-13T04:55:22;101604.03;;;5.22;60.75
18527;BME280;9393;42.158;24.748;2023-02-13T04:58:28;101602.75;;;5.34;60.35
18527;BME280;9393;42.158;24.748;2023-02-13T05:01:31;101603.84;;;5.50;59.57
18527;BME280;9393;42.158;24.748;2023-02-13T05:04:35;101594.84;;;5.58;58.81
18527;BME280;9393;42.158;24.748;2023-02-13T05:07:40;101601.34;;;5.25;59.68
18527;BME280;9393;42.158;24.748;2023-02-13T05:10:43;101605.66;;;5.48;58.93
18527;BME280;9393;42.158;24.748;2023-02-13T05:13:48;101604.09;;;5.44;59.06
18527;BME280;9393;42.158;24.748;2023-02-13T05:16:52;101612.97;;;5.37;59.11
18527;BME280;9393;42.158;24.748;2023-02-13T05:19:56;101611.03;;;5.42;58.87
18527;BME280;9393;42.158;24.748;2023-02-13T05:23:00;101622.91;;;5.47;58.55
18527;BME280;9393;42.158;24.748;2023-02-13T05:26:21;101616.66;;;5.08;59.81
18527;BME280;9393;42.158;24.748;2023-02-13T05:29:26;101632.94;;;4.87;59.87
18527;BME280;9393;42.158;24.748;2023-02-13T05:32:30;101633.16;;;5.04;59.74
18527;BME280;9393;42.158;24.748;2023-02-13T05:35:33;101637.84;;;5.18;59.54
18527;BME280;9393;42.158;24.748;2023-02-13T05:38:37;101648.88;;;4.99;59.93
18527;BME280;9393;42.158;24.748;2023-02-13T05:41:42;101646.41;;;4.96;60.00
18527;BME280;9393;42.158;24.748;2023-02-13T05:44:48;101659.09;;;5.02;59.78
18527;BME280;9393;42.158;24.748;2023-02-13T05:47:51;101663.53;;;4.99;59.76
18527;BME280;9393;42.158;24.748;2023-02-13T05:50:55;101668.31;;;4.62;60.97
18527;BME280;9393;42.158;24.748;2023-02-13T05:53:59;101667.84;;;4.75;60.22
18527;BME280;9393;42.158;24.748;2023-02-13T05:57:03;101671.72;;;4.87;60.01
18527;BME280;9393;42.158;24.748;2023-02-13T06:00:09;101668.53;;;5.03;59.29
18527;BME280;9393;42.158;24.748;2023-02-13T06:03:13;101667.94;;;5.20;58.82
18527;BME280;9393;42.158;24.748;2023-02-13T06:06:17;101675.94;;;5.37;58.17
18527;BME280;9393;42.158;24.748;2023-02-13T06:09:21;101667.72;;;5.26;58.43
18527;BME280;9393;42.158;24.748;2023-02-13T06:12:25;101668.28;;;5.34;58.29
18527;BME280;9393;42.158;24.748;2023-02-13T06:15:31;101671.16;;;5.48;58.36
18527;BME280;9393;42.158;24.748;2023-02-13T06:18:34;101671.03;;;5.75;57.94
18527;BME280;9393;42.158;24.748;2023-02-13T06:21:38;101671.69;;;5.80;58.09
18527;BME280;9393;42.158;24.748;2023-02-13T06:24:42;101675.34;;;5.97;57.92
18527;BME280;9393;42.158;24.748;2023-02-13T06:27:46;101680.34;;;6.02;57.30
18527;BME280;9393;42.158;24.748;2023-02-13T06:30:52;101680.34;;;6.24;57.66
18527;BME280;9393;42.158;24.748;2023-02-13T06:33:56;101684.88;;;6.39;57.08
18527;BME280;9393;42.158;24.748;2023-02-13T06:37:00;101668.63;;;6.55;57.70
18527;BME280;9393;42.158;24.748;2023-02-13T06:40:05;101668.31;;;6.43;56.49
18527;BME280;9393;42.158;24.748;2023-02-13T06:43:09;101680.09;;;6.90;55.14
18527;BME280;9393;42.158;24.748;2023-02-13T06:46:14;101682.81;;;6.87;55.88
18527;BME280;9393;42.158;24.748;2023-02-13T06:49:18;101680.50;;;7.20;55.10
18527;BME280;9393;42.158;24.748;2023-02-13T06:52:22;101678.25;;;7.31;55.23
18527;BME280;9393;42.158;24.748;2023-02-13T06:55:26;101673.28;;;7.27;55.05
18527;BME280;9393;42.158;24.748;2023-02-13T06:58:30;101672.25;;;7.68;53.98
18527;BME280;9393;42.158;24.748;2023-02-13T07:01:36;101672.75;;;7.93;52.97
18527;BME280;9393;42.158;24.748;2023-02-13T07:04:40;101678.34;;;8.39;51.77
18527;BME280;9393;42.158;24.748;2023-02-13T07:07:44;101668.41;;;8.30;51.76
18527;BME280;9393;42.158;24.748;2023-02-13T07:10:48;101657.56;;;8.56;52.29
18527;BME280;9393;42.158;24.748;2023-02-13T07:13:51;101661.19;;;8.86;50.50
18527;BME280;9393;42.158;24.748;2023-02-13T07:16:57;101662.50;;;9.10;50.31
18527;BME280;9393;42.158;24.748;2023-02-13T07:20:01;101661.88;;;9.23;49.63
18527;BME280;9393;42.158;24.748;2023-02-13T07:23:05;101664.50;;;9.54;49.14
18527;BME280;9393;42.158;24.748;2023-02-13T07:26:09;101662.56;;;9.73;48.92
18527;BME280;9393;42.158;24.748;2023-02-13T07:29:13;101669.97;;;9.81;48.46
18527;BME280;9393;42.158;24.748;2023-02-13T07:32:18;101661.41;;;9.79;48.51
18527;BME280;9393;42.158;24.748;2023-02-13T07:35:22;101672.22;;;10.02;47.83
18527;BME280;9393;42.158;24.748;2023-02-13T07:38:26;101677.00;;;10.10;47.22
18527;BME280;9393;42.158;24.748;2023-02-13T07:41:30;101672.97;;;10.04;47.82
18527;BME280;9393;42.158;24.748;2023-02-13T07:44:34;101669.28;;;9.93;47.61
18527;BME280;9393;42.158;24.748;2023-02-13T07:47:39;101665.25;;;10.03;47.65
18527;BME280;9393;42.158;24.748;2023-02-13T07:50:43;101665.41;;;10.16;47.53
18527;BME280;9393;42.158;24.748;2023-02-13T07:53:47;101667.03;;;10.62;46.30
18527;BME280;9393;42.158;24.748;2023-02-13T07:56:50;101665.00;;;10.67;45.85
18527;BME280;9393;42.158;24.748;2023-02-13T07:59:54;101662.28;;;10.54;46.33
18527;BME280;9393;42.158;24.748;2023-02-13T08:03:00;101659.03;;;10.65;46.30
18527;BME280;9393;42.158;24.748;2023-02-13T08:06:05;101656.91;;;10.86;45.79
18527;BME280;9393;42.158;24.748;2023-02-13T08:09:17;101650.94;;;11.12;45.44
18527;BME280;9393;42.158;24.748;2023-02-13T08:12:41;101654.19;;;11.44;44.49
18527;BME280;9393;42.158;24.748;2023-02-13T08:15:45;101657.75;;;11.14;45.44
18527;BME280;9393;42.158;24.748;2023-02-13T08:18:50;101652.91;;;11.23;45.25
18527;BME280;9393;42.158;24.748;2023-02-13T08:21:54;101657.81;;;11.41;44.82
18527;BME280;9393;42.158;24.748;2023-02-13T08:24:58;101655.03;;;11.44;44.97
18527;BME280;9393;42.158;24.748;2023-02-13T08:28:02;101658.94;;;11.92;43.74
18527;BME280;9393;42.158;24.748;2023-02-13T08:31:09;101648.16;;;12.24;43.14
18527;BME280;9393;42.158;24.748;2023-02-13T08:34:15;101651.50;;;12.26;43.00
18527;BME280;9393;42.158;24.748;2023-02-13T08:37:19;101645.66;;;11.95;42.63
18527;BME280;9393;42.158;24.748;2023-02-13T08:40:22;101653.31;;;11.72;43.69
18527;BME280;9393;42.158;24.748;2023-02-13T08:43:27;101651.91;;;12.20;43.23
18527;BME280;9393;42.158;24.748;2023-02-13T08:46:30;101650.25;;;12.31;42.99
18527;BME280;9393;42.158;24.748;2023-02-13T08:49:36;101640.47;;;12.60;41.89
18527;BME280;9393;42.158;24.748;2023-02-13T08:52:39;101637.84;;;12.60;41.84
18527;BME280;9393;42.158;24.748;2023-02-13T08:55:51;101640.88;;;12.66;41.86
18527;BME280;9393;42.158;24.748;2023-02-13T08:58:54;101633.13;;;12.78;41.68
18527;BME280;9393;42.158;24.748;2023-02-13T09:01:58;101639.72;;;12.83;41.91
18527;BME280;9393;42.158;24.748;2023-02-13T09:05:04;101636.38;;;13.19;41.14
18527;BME280;9393;42.158;24.748;2023-02-13T09:08:08;101629.84;;;13.25;40.27
18527;BME280;9393;42.158;24.748;2023-02-13T09:11:14;101631.00;;;13.21;40.85
18527;BME280;9393;42.158;24.748;2023-02-13T09:14:18;101624.00;;;13.21;41.10
18527;BME280;9393;42.158;24.748;2023-02-13T09:17:24;101627.75;;;13.30;40.34
18527;BME280;9393;42.158;24.748;2023-02-13T09:20:29;101621.19;;;13.11;40.66
18527;BME280;9393;42.158;24.748;2023-02-13T09:23:34;101613.72;;;13.05;40.78
18527;BME280;9393;42.158;24.748;2023-02-13T09:26:38;101613.50;;;13.21;40.70
18527;BME280;9393;42.158;24.748;2023-02-13T09:29:42;101604.13;;;13.42;40.25
18527;BME280;9393;42.158;24.748;2023-02-13T09:32:50;101604.72;;;13.22;40.74
18527;BME280;9393;42.158;24.748;2023-02-13T09:35:56;101594.63;;;13.29;40.81
18527;BME280;9393;42.158;24.748;2023-02-13T09:39:00;101598.31;;;13.26;40.05
18527;BME280;9393;42.158;24.748;2023-02-13T09:42:06;101584.16;;;13.76;39.29
18527;BME280;9393;42.158;24.748;2023-02-13T09:45:19;101575.13;;;13.33;40.24
18527;BME280;9393;42.158;24.748;2023-02-13T09:48:27;101574.34;;;13.67;39.66
18527;BME280;9393;42.158;24.748;2023-02-13T09:51:34;101571.03;;;13.65;39.57
18527;BME280;9393;42.158;24.748;2023-02-13T09:54:38;101567.78;;;13.96;38.66
18527;BME280;9393;42.158;24.748;2023-02-13T09:57:45;101559.63;;;14.12;38.67
18527;BME280;9393;42.158;24.748;2023-02-13T10:00:53;101553.09;;;14.29;38.25
18527;BME280;9393;42.158;24.748;2023-02-13T10:04:24;101551.38;;;14.05;38.49
18527;BME280;9393;42.158;24.748;2023-02-13T10:07:38;101535.38;;;13.97;38.50
18527;BME280;9393;42.158;24.748;2023-02-13T10:10:49;101527.81;;;13.82;38.41
18527;BME280;9393;42.158;24.748;2023-02-13T10:14:00;101525.63;;;14.10;38.65
18527;BME280;9393;42.158;24.748;2023-02-13T10:17:12;101517.69;;;14.34;38.33
18527;BME280;9393;42.158;24.748;2023-02-13T10:20:25;101514.31;;;14.21;37.87
18527;BME280;9393;42.158;24.748;2023-02-13T10:23:35;101510.66;;;14.46;37.79
18527;BME280;9393;42.158;24.748;2023-02-13T10:26:46;101505.00;;;14.06;37.74
18527;BME280;9393;42.158;24.748;2023-02-13T10:29:54;101499.31;;;14.79;36.82
18527;BME280;9393;42.158;24.748;2023-02-13T10:33:12;101495.75;;;14.69;36.90
18527;BME280;9393;42.158;24.748;2023-02-13T10:36:25;101479.72;;;14.83;36.81
18527;BME280;9393;42.158;24.748;2023-02-13T10:39:31;101486.41;;;14.76;36.80
18527;BME280;9393;42.158;24.748;2023-02-13T10:42:42;101469.72;;;14.77;35.79
18527;BME280;9393;42.158;24.748;2023-02-13T10:46:05;101473.50;;;14.95;35.25
18527;BME280;9393;42.158;24.748;2023-02-13T10:49:31;101467.03;;;15.10;35.34
18527;BME280;9393;42.158;24.748;2023-02-13T10:52:43;101457.00;;;15.36;34.79
18527;BME280;9393;42.158;24.748;2023-02-13T10:56:06;101457.47;;;15.41;35.03
18527;BME280;9393;42.158;24.748;2023-02-13T10:59:26;101452.75;;;15.76;34.35
18527;BME280;9393;42.158;24.748;2023-02-13T11:02:33;101437.72;;;15.14;34.99
18527;BME280;9393;42.158;24.748;2023-02-13T11:05:39;101435.19;;;14.81;34.94
18527;BME280;9393;42.158;24.748;2023-02-13T11:08:45;101431.97;;;14.89;35.55
18527;BME280;9393;42.158;24.748;2023-02-13T11:11:52;101426.47;;;15.24;35.51
18527;BME280;9393;42.158;24.748;2023-02-13T11:14:57;101419.28;;;14.83;35.04
18527;BME280;9393;42.158;24.748;2023-02-13T11:18:12;101414.41;;;15.42;34.59
18527;BME280;9393;42.158;24.748;2023-02-13T11:21:21;101400.66;;;15.70;34.14
18527;BME280;9393;42.158;24.748;2023-02-13T11:24:27;101396.22;;;15.91;33.53
18527;BME280;9393;42.158;24.748;2023-02-13T11:27:36;101389.44;;;15.89;32.97
18527;BME280;9393;42.158;24.748;2023-02-13T11:30:41;101389.53;;;15.46;33.33
18527;BME280;9393;42.158;24.748;2023-02-13T11:33:45;101374.81;;;15.34;33.17
18527;BME280;9393;42.158;24.748;2023-02-13T11:36:50;101372.78;;;15.58;32.88
18527;BME280;9393;42.158;24.748;2023-02-13T11:39:57;101368.09;;;15.61;33.11
18527;BME280;9393;42.158;24.748;2023-02-13T11:43:05;101361.81;;;15.21;33.30
18527;BME280;9393;42.158;24.748;2023-02-13T11:46:16;101353.91;;;15.53;33.24
18527;BME280;9393;42.158;24.748;2023-02-13T11:49:22;101353.53;;;15.88;32.54
18527;BME280;9393;42.158;24.748;2023-02-13T11:52:27;101345.72;;;16.07;32.38
18527;BME280;9393;42.158;24.748;2023-02-13T11:55:33;101345.00;;;15.95;32.02
18527;BME280;9393;42.158;24.748;2023-02-13T11:58:41;101340.72;;;16.04;31.64
18527;BME280;9393;42.158;24.748;2023-02-13T12:01:45;101332.97;;;16.02;32.00
18527;BME280;9393;42.158;24.748;2023-02-13T12:04:53;101327.44;;;16.05;31.74
18527;BME280;9393;42.158;24.748;2023-02-13T12:07:59;101320.41;;;16.25;31.54
18527;BME280;9393;42.158;24.748;2023-02-13T12:11:07;101317.38;;;15.90;30.74
18527;BME280;9393;42.158;24.748;2023-02-13T12:14:20;101313.34;;;15.35;31.33
18527;BME280;9393;42.158;24.748;2023-02-13T12:17:26;101301.53;;;15.71;31.28
18527;BME280;9393;42.158;24.748;2023-02-13T12:20:41;101295.53;;;15.89;31.44
18527;BME280;9393;42.158;24.748;2023-02-13T12:23:53;101298.81;;;15.82;31.27
18527;BME280;9393;42.158;24.748;2023-02-13T12:27:09;101292.16;;;15.78;30.96
18527;BME280;9393;42.158;24.748;2023-02-13T12:30:35;101293.78;;;15.99;30.96
18527;BME280;9393;42.158;24.748;2023-02-13T12:34:16;101291.47;;;15.34;31.82
18527;BME280;9393;42.158;24.748;2023-02-13T12:37:38;101288.88;;;15.13;31.44
18527;BME280;9393;42.158;24.748;2023-02-13T12:41:00;101292.25;;;15.46;31.39
18527;BME280;9393;42.158;24.748;2023-02-13T12:44:23;101280.53;;;15.50;31.37
18527;BME280;9393;42.158;24.748;2023-02-13T12:47:39;101279.19;;;15.55;31.31
18527;BME280;9393;42.158;24.748;2023-02-13T12:50:58;101274.78;;;15.96;30.94
18527;BME280;9393;42.158;24.748;2023-02-13T12:54:17;101267.84;;;15.95;30.67
18527;BME280;9393;42.158;24.748;2023-02-13T12:57:38;101266.91;;;16.15;29.66
18527;BME280;9393;42.158;24.748;2023-02-13T13:00:55;101270.34;;;15.36;31.05
18527;BME280;9393;42.158;24.748;2023-02-13T13:04:13;101262.31;;;15.58;31.18
18527;BME280;9393;42.158;24.748;2023-02-13T13:07:45;101257.94;;;15.47;30.92
18527;BME280;9393;42.158;24.748;2023-02-13T13:10:58;101262.75;;;15.63;30.72
18527;BME280;9393;42.158;24.748;2023-02-13T13:14:09;101264.03;;;15.48;30.54
18527;BME280;9393;42.158;24.748;2023-02-13T13:17:29;101250.41;;;15.33;30.38
18527;BME280;9393;42.158;24.748;2023-02-13T13:20:54;101250.84;;;15.38;30.98
18527;BME280;9393;42.158;24.748;2023-02-13T13:24:06;101246.09;;;15.53;30.54
18527;BME280;9393;42.158;24.748;2023-02-13T13:27:17;101245.16;;;15.63;30.33
18527;BME280;9393;42.158;24.748;2023-02-13T13:30:26;101233.16;;;15.71;29.85
18527;BME280;9393;42.158;24.748;2023-02-13T13:33:32;101240.22;;;15.70;30.21
18527;BME280;9393;42.158;24.748;2023-02-13T13:36:44;101232.50;;;15.78;29.83
18527;BME280;9393;42.158;24.748;2023-02-13T13:39:55;101223.19;;;15.74;29.82
18527;BME280;9393;42.158;24.748;2023-02-13T13:43:06;101223.94;;;15.25;30.18
18527;BME280;9393;42.158;24.748;2023-02-13T13:46:14;101226.41;;;15.47;30.20
18527;BME280;9393;42.158;24.748;2023-02-13T13:49:28;101222.22;;;15.45;30.40
18527;BME280;9393;42.158;24.748;2023-02-13T13:52:39;101219.22;;;15.49;30.20
18527;BME280;9393;42.158;24.748;2023-02-13T13:56:04;101222.47;;;15.42;29.95
18527;BME280;9393;42.158;24.748;2023-02-13T13:59:16;101215.75;;;14.98;30.17
18527;BME280;9393;42.158;24.748;2023-02-13T14:02:40;101217.25;;;14.91;30.88
18527;BME280;9393;42.158;24.748;2023-02-13T14:06:00;101216.22;;;14.82;30.92
18527;BME280;9393;42.158;24.748;2023-02-13T14:12:45;101200.38;;;14.73;31.25
18527;BME280;9393;42.158;24.748;2023-02-13T14:15:51;101207.63;;;14.80;31.20
18527;BME280;9393;42.158;24.748;2023-02-13T14:18:56;101198.69;;;14.19;31.70
18527;BME280;9393;42.158;24.748;2023-02-13T14:22:25;101201.19;;;13.78;32.04
18527;BME280;9393;42.158;24.748;2023-02-13T14:25:35;101203.13;;;14.07;32.36
18527;BME280;9393;42.158;24.748;2023-02-13T14:28:40;101204.03;;;14.29;31.70
18527;BME280;9393;42.158;24.748;2023-02-13T14:31:57;101196.84;;;14.42;31.57
18527;BME280;9393;42.158;24.748;2023-02-13T14:35:06;101194.09;;;14.43;31.82
18527;BME280;9393;42.158;24.748;2023-02-13T14:38:22;101190.06;;;14.39;32.10
18527;BME280;9393;42.158;24.748;2023-02-13T14:41:55;101186.59;;;14.39;31.98
18527;BME280;9393;42.158;24.748;2023-02-13T14:45:01;101188.53;;;14.37;32.11
18527;BME280;9393;42.158;24.748;2023-02-13T14:48:10;101191.81;;;14.07;31.99
18527;BME280;9393;42.158;24.748;2023-02-13T14:51:21;101181.88;;;13.79;32.20
18527;BME280;9393;42.158;24.748;2023-02-13T14:54:32;101179.72;;;13.84;32.58
18527;BME280;9393;42.158;24.748;2023-02-13T14:57:41;101175.25;;;13.52;32.77
18527;BME280;9393;42.158;24.748;2023-02-13T15:00:52;101175.81;;;13.67;33.03
18527;BME280;9393;42.158;24.748;2023-02-13T15:04:00;101169.41;;;13.60;33.07
18527;BME280;9393;42.158;24.748;2023-02-13T15:07:14;101169.88;;;13.32;33.50
18527;BME280;9393;42.158;24.748;2023-02-13T15:10:30;101173.94;;;13.13;33.84
18527;BME280;9393;42.158;24.748;2023-02-13T15:13:38;101166.97;;;12.90;34.00
18527;BME280;9393;42.158;24.748;2023-02-13T15:16:42;101168.75;;;12.68;34.29
18527;BME280;9393;42.158;24.748;2023-02-13T15:19:50;101166.97;;;12.68;34.31
18527;BME280;9393;42.158;24.748;2023-02-13T15:22:56;101166.91;;;12.57;34.26
18527;BME280;9393;42.158;24.748;2023-02-13T15:26:01;101168.84;;;12.66;34.64
18527;BME280;9393;42.158;24.748;2023-02-13T15:29:14;101169.41;;;12.47;34.67
18527;BME280;9393;42.158;24.748;2023-02-13T15:32:33;101168.69;;;12.22;34.89
18527;BME280;9393;42.158;24.748;2023-02-13T15:35:38;101162.84;;;12.18;35.37
18527;BME280;9393;42.158;24.748;2023-02-13T15:38:42;101165.53;;;12.05;35.19
18527;BME280;9393;42.158;24.748;2023-02-13T15:41:47;101165.75;;;11.79;35.88
18527;BME280;9393;42.158;24.748;2023-02-13T15:44:56;101155.78;;;11.47;36.36
18527;BME280;9393;42.158;24.748;2023-02-13T15:48:00;101155.78;;;11.35;36.86
18527;BME280;9393;42.158;24.748;2023-02-13T15:51:04;101154.66;;;11.26;36.89
18527;BME280;9393;42.158;24.748;2023-02-13T15:54:22;101164.06;;;11.29;36.86
18527;BME280;9393;42.158;24.748;2023-02-13T15:57:27;101160.78;;;11.38;36.88
18527;BME280;9393;42.158;24.748;2023-02-13T16:00:35;101167.22;;;11.34;36.81
18527;BME280;9393;42.158;24.748;2023-02-13T16:03:40;101161.31;;;11.43;36.81
18527;BME280;9393;42.158;24.748;2023-02-13T16:06:46;101157.16;;;11.40;37.17
18527;BME280;9393;42.158;24.748;2023-02-13T16:10:14;101164.56;;;11.46;37.07
18527;BME280;9393;42.158;24.748;2023-02-13T16:13:18;101169.38;;;11.40;37.29
18527;BME280;9393;42.158;24.748;2023-02-13T16:16:24;101164.47;;;11.35;37.29
18527;BME280;9393;42.158;24.748;2023-02-13T16:19:33;101169.69;;;11.48;37.40
18527;BME280;9393;42.158;24.748;2023-02-13T16:22:39;101177.03;;;11.30;37.26
18527;BME280;9393;42.158;24.748;2023-02-13T16:25:47;101176.41;;;11.27;37.55
18527;BME280;9393;42.158;24.748;2023-02-13T16:28:51;101184.97;;;11.29;37.60
18527;BME280;9393;42.158;24.748;2023-02-13T16:32:06;101176.91;;;11.32;37.75
18527;BME280;9393;42.158;24.748;2023-02-13T16:35:17;101183.22;;;11.17;37.66
18527;BME280;9393;42.158;24.748;2023-02-13T16:38:32;101190.72;;;11.34;37.61
18527;BME280;9393;42.158;24.748;2023-02-13T16:41:36;101193.84;;;11.26;38.15
18527;BME280;9393;42.158;24.748;2023-02-13T16:44:40;101185.91;;;11.15;37.87
18527;BME280;9393;42.158;24.748;2023-02-13T16:47:46;101191.03;;;11.29;38.01